Terminal Aerodrome Forecast
Issued by NWS

Home | Current Version | Previous Version | Text Only | Print | Product List | Glossary On
Versions: 1 2 3 4 5 6 7 8 9 10 11 12 13 14 15 16 17 18 19 20
000
FTAK31 PAJN 272322
TAFAKT
TAF
PAKT 272322Z 2800/2824 14014G21KT P6SM VCSH SCT025 BKN035 BKN080
      TEMPO 2800/2803 -SHRA BKN025
     FM280300 14005KT P6SM VCSH FEW030 BKN050
     FM282000 VRB05KT P6SM VCSH SCT040 BKN100
      AMD LTD TO CLD VIS AND WIND 2806/2815=

USA.gov is the U.S. government's official web portal to all federal, state and local government web resources and services.